createdAt,value
2022-07-30T00:00:25.084Z,29.58
2022-07-30T00:00:50.134Z,29.57
2022-07-30T00:01:20.314Z,29.57
2022-07-30T00:01:50.290Z,29.58
2022-07-30T00:02:20.400Z,29.57
2022-07-30T00:02:50.510Z,29.57
2022-07-30T00:03:20.705Z,29.56
2022-07-30T00:03:51.552Z,29.57
2022-07-30T00:04:20.687Z,29.54
2022-07-30T00:04:50.792Z,29.57
2022-07-30T00:05:20.901Z,29.58
2022-07-30T00:05:51.005Z,29.56
2022-07-30T00:06:21.116Z,29.54
2022-07-30T00:06:51.223Z,29.56
2022-07-30T00:07:21.338Z,29.57
2022-07-30T00:07:51.447Z,29.54
2022-07-30T00:08:21.617Z,29.56
2022-07-30T00:08:51.639Z,29.54
2022-07-30T00:09:21.748Z,29.53
2022-07-30T00:09:51.858Z,29.56
2022-07-30T00:10:21.969Z,29.56
2022-07-30T00:10:51.965Z,29.57
2022-07-30T00:11:27.232Z,29.53
2022-07-30T00:11:52.081Z,29.54
2022-07-30T00:12:22.188Z,29.53
2022-07-30T00:12:52.296Z,29.56
2022-07-30T00:13:22.431Z,29.54
2022-07-30T00:13:52.409Z,29.53
2022-07-30T00:14:22.514Z,29.53
2022-07-30T00:14:52.629Z,29.54
2022-07-30T00:15:22.754Z,29.56
2022-07-30T00:15:52.741Z,29.53
2022-07-30T00:16:22.942Z,29.56
2022-07-30T00:16:53.016Z,29.53
2022-07-30T00:17:23.003Z,29.53
2022-07-30T00:17:53.058Z,29.53
2022-07-30T00:18:23.167Z,29.54
2022-07-30T00:18:53.274Z,29.54
2022-07-30T00:19:23.405Z,29.51
2022-07-30T00:19:53.360Z,29.53
2022-07-30T00:20:23.460Z,29.51
2022-07-30T00:20:53.448Z,29.51
2022-07-30T00:21:36.041Z,29.53
2022-07-30T00:21:53.507Z,29.53
2022-07-30T00:22:23.616Z,29.53
2022-07-30T00:22:53.720Z,29.51
2022-07-30T00:23:23.838Z,29.50
2022-07-30T00:24:01.458Z,29.50
2022-07-30T00:24:23.953Z,29.50
2022-07-30T00:24:54.061Z,29.49
2022-07-30T00:25:24.094Z,29.50
2022-07-30T00:25:54.200Z,29.50
2022-07-30T00:26:24.309Z,29.50
2022-07-30T00:26:54.417Z,29.49
2022-07-30T00:27:24.523Z,29.50
2022-07-30T00:27:54.635Z,29.50
2022-07-30T00:28:24.760Z,29.49
2022-07-30T00:28:54.746Z,29.50
2022-07-30T00:29:24.851Z,29.51
2022-07-30T00:29:54.956Z,29.49
2022-07-30T00:30:25.130Z,29.50
2022-07-30T00:30:56.256Z,29.49
2022-07-30T00:31:25.201Z,29.47
2022-07-30T00:31:55.310Z,29.50
2022-07-30T00:32:25.416Z,29.49
2022-07-30T00:32:55.526Z,29.50
2022-07-30T00:33:25.661Z,29.49
2022-07-30T00:33:55.641Z,29.50
2022-07-30T00:34:25.754Z,29.50
2022-07-30T00:34:55.861Z,29.49
2022-07-30T00:35:26.008Z,29.49
2022-07-30T00:35:56.000Z,29.50
2022-07-30T00:36:26.106Z,29.49
2022-07-30T00:36:56.215Z,29.47
2022-07-30T00:37:26.321Z,29.47
2022-07-30T00:37:56.434Z,29.47
2022-07-30T00:38:26.539Z,29.47
2022-07-30T00:38:56.642Z,29.47
2022-07-30T00:39:26.749Z,29.50
2022-07-30T00:39:56.860Z,29.49
2022-07-30T00:40:26.971Z,29.49
2022-07-30T00:40:57.087Z,29.47
2022-07-30T00:41:27.196Z,29.47
2022-07-30T00:41:57.311Z,29.49
2022-07-30T00:42:27.412Z,29.49
2022-07-30T00:42:57.486Z,29.46
2022-07-30T00:43:27.583Z,29.47
2022-07-30T00:43:57.672Z,29.49
2022-07-30T00:44:27.726Z,29.49
2022-07-30T00:44:57.795Z,29.49
2022-07-30T00:45:27.950Z,29.47
2022-07-30T00:45:57.943Z,29.50
2022-07-30T00:46:28.015Z,29.46
2022-07-30T00:46:58.684Z,29.46
2022-07-30T00:47:28.088Z,29.46
2022-07-30T00:47:58.160Z,29.46
2022-07-30T00:48:28.255Z,29.47
2022-07-30T00:48:58.419Z,29.46
2022-07-30T00:49:28.361Z,29.47
2022-07-30T00:49:58.432Z,29.47
2022-07-30T00:50:28.507Z,29.47
2022-07-30T00:50:58.574Z,29.46
2022-07-30T00:51:28.622Z,29.47
2022-07-30T00:51:58.695Z,29.47
2022-07-30T00:52:28.770Z,29.47
2022-07-30T00:52:58.880Z,29.47
2022-07-30T00:53:29.002Z,29.44
2022-07-30T00:53:58.987Z,29.47
2022-07-30T00:54:29.101Z,29.46
2022-07-30T00:54:59.209Z,29.47
2022-07-30T00:55:29.328Z,29.46
2022-07-30T00:55:59.434Z,29.46
2022-07-30T00:56:29.547Z,29.46
2022-07-30T00:56:59.982Z,29.46
2022-07-30T00:57:29.694Z,29.46
2022-07-30T00:57:59.805Z,29.46
2022-07-30T00:58:29.913Z,29.44
2022-07-30T00:59:00.023Z,29.44
2022-07-30T00:59:30.136Z,29.44
2022-07-30T01:00:00.252Z,29.44
2022-07-30T01:00:30.373Z,29.46
2022-07-30T01:01:00.397Z,29.43
2022-07-30T01:01:30.490Z,29.46
2022-07-30T01:02:00.585Z,29.43
2022-07-30T01:02:30.645Z,29.44
2022-07-30T01:03:00.614Z,29.44
2022-07-30T01:03:30.743Z,29.44
2022-07-30T01:04:00.729Z,29.44
2022-07-30T01:04:30.836Z,29.44
2022-07-30T01:05:00.944Z,29.42
2022-07-30T01:05:31.057Z,29.43
2022-07-30T01:06:01.160Z,29.43
2022-07-30T01:06:31.273Z,29.44
2022-07-30T01:07:01.915Z,29.43
2022-07-30T01:07:31.460Z,29.43
2022-07-30T01:08:01.574Z,29.43
2022-07-30T01:08:31.726Z,29.43
2022-07-30T01:09:01.706Z,29.42
2022-07-30T01:09:31.810Z,29.43
2022-07-30T01:10:01.929Z,29.42
2022-07-30T01:10:32.030Z,29.44
2022-07-30T01:11:02.139Z,29.44
2022-07-30T01:11:32.266Z,29.42
2022-07-30T01:12:02.269Z,29.43
2022-07-30T01:12:32.378Z,29.40
2022-07-30T01:13:02.490Z,29.42
2022-07-30T01:13:32.613Z,29.43
2022-07-30T01:14:02.594Z,29.42
2022-07-30T01:14:32.707Z,29.44
2022-07-30T01:15:02.826Z,29.40
2022-07-30T01:15:32.919Z,29.42
2022-07-30T01:16:03.125Z,29.40
2022-07-30T01:16:33.185Z,29.42
2022-07-30T01:17:03.454Z,29.39
2022-07-30T01:17:33.144Z,29.42
2022-07-30T01:18:03.253Z,29.40
2022-07-30T01:18:33.369Z,29.40
2022-07-30T01:19:03.355Z,29.40
2022-07-30T01:19:33.458Z,29.42
2022-07-30T01:20:03.573Z,29.40
2022-07-30T01:20:33.672Z,29.40
2022-07-30T01:21:03.782Z,29.40
2022-07-30T01:21:33.891Z,29.40
2022-07-30T01:22:03.998Z,29.39
2022-07-30T01:22:34.109Z,29.39
2022-07-30T01:23:04.220Z,29.39
2022-07-30T01:23:34.347Z,29.40
2022-07-30T01:24:04.327Z,29.40
2022-07-30T01:24:34.432Z,29.40
2022-07-30T01:25:04.549Z,29.40
2022-07-30T01:25:34.659Z,29.42
2022-07-30T01:26:04.766Z,29.37
2022-07-30T01:26:34.871Z,29.40
2022-07-30T01:27:04.976Z,29.37
2022-07-30T01:27:34.980Z,29.39
2022-07-30T01:28:04.974Z,29.40
2022-07-30T01:28:35.245Z,29.37
2022-07-30T01:29:05.103Z,29.40
2022-07-30T01:29:35.204Z,29.40
2022-07-30T01:30:05.316Z,29.39
2022-07-30T01:30:35.513Z,29.39
2022-07-30T01:31:05.469Z,29.37
2022-07-30T01:31:35.615Z,29.40
2022-07-30T01:32:05.647Z,29.40
2022-07-30T01:32:35.608Z,29.37
2022-07-30T01:33:05.719Z,29.39
2022-07-30T01:33:35.842Z,29.39
2022-07-30T01:34:05.827Z,29.39
2022-07-30T01:34:35.816Z,29.39
2022-07-30T01:35:05.929Z,29.37
2022-07-30T01:35:36.038Z,29.36
2022-07-30T01:36:06.148Z,29.34
2022-07-30T01:36:36.253Z,29.39
2022-07-30T01:37:06.370Z,29.37
2022-07-30T01:37:36.476Z,29.40
2022-07-30T01:38:06.578Z,29.40
2022-07-30T01:38:36.699Z,29.37
2022-07-30T01:39:06.694Z,29.36
2022-07-30T01:39:36.681Z,29.34
2022-07-30T01:40:06.791Z,29.36
2022-07-30T01:40:36.893Z,29.37
2022-07-30T01:41:07.002Z,29.36
2022-07-30T01:41:37.109Z,29.39
2022-07-30T01:42:07.227Z,29.37
2022-07-30T01:42:37.318Z,29.33
2022-07-30T01:43:07.396Z,29.36
2022-07-30T01:43:37.489Z,29.39
2022-07-30T01:44:07.566Z,29.36
2022-07-30T01:44:37.634Z,29.36
2022-07-30T01:45:07.718Z,29.36
2022-07-30T01:45:44.184Z,29.36
2022-07-30T01:46:07.993Z,29.34
2022-07-30T01:46:37.972Z,29.36
2022-07-30T01:47:08.043Z,29.34
2022-07-30T01:47:38.125Z,29.36
2022-07-30T01:48:08.190Z,29.37
2022-07-30T01:48:38.267Z,29.36
2022-07-30T01:49:08.419Z,29.37
2022-07-30T01:49:38.396Z,29.37
2022-07-30T01:50:11.027Z,29.34
2022-07-30T01:50:38.557Z,29.34
2022-07-30T01:51:08.626Z,29.33
2022-07-30T01:51:38.702Z,29.36
2022-07-30T01:52:08.778Z,29.36
2022-07-30T01:52:38.870Z,29.36
2022-07-30T01:53:08.981Z,29.34
2022-07-30T01:53:39.095Z,29.34
2022-07-30T01:54:09.204Z,29.34
2022-07-30T01:54:39.307Z,29.34
2022-07-30T01:55:17.261Z,29.33
2022-07-30T01:55:39.433Z,29.36
2022-07-30T01:56:10.634Z,29.34
2022-07-30T01:56:39.575Z,29.34
2022-07-30T01:57:09.686Z,29.33
2022-07-30T01:57:39.795Z,29.33
2022-07-30T01:58:09.918Z,29.34
2022-07-30T01:58:40.031Z,29.34
2022-07-30T01:59:10.122Z,29.34
2022-07-30T01:59:40.231Z,29.33
2022-07-30T02:00:10.341Z,29.33
2022-07-30T02:00:40.475Z,29.32
2022-07-30T02:01:10.633Z,29.33
2022-07-30T02:01:40.599Z,29.30
2022-07-30T02:02:10.709Z,29.30
2022-07-30T02:02:40.821Z,29.32
2022-07-30T02:03:11.030Z,29.30
2022-07-30T02:03:41.097Z,29.32
2022-07-30T02:04:11.070Z,29.33
2022-07-30T02:04:41.172Z,29.33
2022-07-30T02:05:11.281Z,29.32
2022-07-30T02:05:41.391Z,29.32
2022-07-30T02:06:11.515Z,29.30
2022-07-30T02:06:41.624Z,29.30
2022-07-30T02:07:11.723Z,29.32
2022-07-30T02:07:41.832Z,29.33
2022-07-30T02:08:11.938Z,29.33
2022-07-30T02:08:42.070Z,29.32
2022-07-30T02:09:12.053Z,29.32
2022-07-30T02:09:46.996Z,29.32
2022-07-30T02:10:12.171Z,29.30
2022-07-30T02:10:42.308Z,29.32
2022-07-30T02:11:12.296Z,29.32
2022-07-30T02:11:42.401Z,29.30
2022-07-30T02:12:12.517Z,29.32
2022-07-30T02:15:07.671Z,29.21
2022-07-30T02:15:31.191Z,29.19
2022-07-30T02:16:01.304Z,29.21
2022-07-30T02:16:31.401Z,29.19
2022-07-30T02:17:01.969Z,29.19
2022-07-30T02:17:39.616Z,29.21
2022-07-30T02:18:01.612Z,29.17
2022-07-30T02:18:31.685Z,29.17
2022-07-30T02:19:01.759Z,29.21
2022-07-30T02:19:32.827Z,29.22
2022-07-30T02:20:02.545Z,29.23
2022-07-30T02:20:31.795Z,29.21
2022-07-30T02:21:02.618Z,29.22
2022-07-30T02:21:36.674Z,29.22
2022-07-30T02:22:02.054Z,29.21
2022-07-30T02:22:32.124Z,29.21
2022-07-30T02:23:02.190Z,29.21
2022-07-30T02:23:32.257Z,29.22
2022-07-30T02:24:02.328Z,29.23
2022-07-30T02:24:32.398Z,29.23
2022-07-30T02:25:02.502Z,29.25
2022-07-30T02:25:32.605Z,29.26
2022-07-30T02:26:02.744Z,29.23
2022-07-30T02:26:32.730Z,29.23
2022-07-30T02:27:03.301Z,29.23
2022-07-30T02:27:32.880Z,29.25
2022-07-30T02:28:02.980Z,29.23
2022-07-30T02:28:33.106Z,29.25
2022-07-30T02:29:03.088Z,29.25
2022-07-30T02:29:33.195Z,29.25
2022-07-30T02:30:03.299Z,29.25
2022-07-30T02:30:33.406Z,29.25
2022-07-30T02:31:03.606Z,29.25
2022-07-30T02:31:33.615Z,29.25
2022-07-30T02:32:03.566Z,29.25
2022-07-30T02:32:33.677Z,29.26
2022-07-30T02:33:03.784Z,29.28
2022-07-30T02:33:33.907Z,29.26
2022-07-30T02:34:03.889Z,29.23
2022-07-30T02:34:33.998Z,29.26
2022-07-30T02:35:04.102Z,29.26
2022-07-30T02:35:34.207Z,29.26
2022-07-30T02:36:04.310Z,29.28
2022-07-30T02:36:34.324Z,29.25
2022-07-30T02:37:04.429Z,29.26
2022-07-30T02:37:43.352Z,29.25
2022-07-30T02:38:04.542Z,29.28
2022-07-30T02:38:34.693Z,29.26
2022-07-30T02:39:04.673Z,29.25
2022-07-30T02:39:34.780Z,29.23
2022-07-30T02:40:04.887Z,29.25
2022-07-30T02:40:35.025Z,29.25
2022-07-30T02:41:04.998Z,29.25
2022-07-30T02:41:35.163Z,29.26
2022-07-30T02:42:05.146Z,29.26
2022-07-30T02:42:35.258Z,29.26
2022-07-30T02:43:05.363Z,29.26
2022-07-30T02:43:36.288Z,29.26
2022-07-30T02:44:05.553Z,29.28
2022-07-30T02:44:35.664Z,29.25
2022-07-30T02:45:05.769Z,29.26
2022-07-30T02:45:35.876Z,29.23
2022-07-30T02:46:05.988Z,29.25
2022-07-30T02:46:36.147Z,29.23
2022-07-30T02:47:06.407Z,29.25
2022-07-30T02:47:36.204Z,29.23
2022-07-30T02:48:06.303Z,29.23
2022-07-30T02:48:36.412Z,29.25
2022-07-30T02:49:06.596Z,29.23
2022-07-30T02:49:36.605Z,29.21
2022-07-30T02:50:06.704Z,29.25
2022-07-30T02:50:36.810Z,29.23
2022-07-30T02:51:06.922Z,29.25
2022-07-30T02:51:37.030Z,29.25
2022-07-30T02:52:07.143Z,29.22
2022-07-30T02:52:37.253Z,29.23
2022-07-30T02:53:07.353Z,29.23
2022-07-30T02:53:37.464Z,29.23
2022-07-30T02:54:07.573Z,29.22
2022-07-30T02:54:37.684Z,29.22
2022-07-30T02:55:07.792Z,29.23
2022-07-30T02:55:37.907Z,29.23
2022-07-30T02:56:08.014Z,29.23
2022-07-30T02:56:38.122Z,29.22
2022-07-30T02:57:08.220Z,29.21
2022-07-30T02:57:41.540Z,29.22
2022-07-30T02:58:08.339Z,29.21
2022-07-30T02:58:38.447Z,29.23
2022-07-30T02:59:08.554Z,29.22
2022-07-30T02:59:38.659Z,29.22
2022-07-30T03:00:08.767Z,29.23
2022-07-30T03:00:38.903Z,29.22
2022-07-30T03:01:09.006Z,29.21
2022-07-30T03:01:38.992Z,29.19
2022-07-30T03:02:09.015Z,29.21
2022-07-30T03:02:39.400Z,29.21
2022-07-30T03:03:09.011Z,29.19
2022-07-30T03:03:39.115Z,29.19
2022-07-30T03:04:09.222Z,29.19
2022-07-30T03:04:39.333Z,29.17
2022-07-30T03:05:09.442Z,29.19
2022-07-30T03:05:39.548Z,29.21
2022-07-30T03:06:09.651Z,29.22
2022-07-30T03:06:39.768Z,29.21
2022-07-30T03:07:10.194Z,29.19
2022-07-30T03:07:39.909Z,29.17
2022-07-30T03:08:10.021Z,29.19
2022-07-30T03:08:40.115Z,29.21
2022-07-30T03:09:10.219Z,29.19
2022-07-30T03:09:51.060Z,29.21
2022-07-30T03:10:10.335Z,29.19
2022-07-30T03:10:40.441Z,29.21
2022-07-30T03:11:10.540Z,29.21
2022-07-30T03:11:40.659Z,29.19
2022-07-30T03:12:10.767Z,29.16
2022-07-30T03:12:40.873Z,29.17
2022-07-30T03:13:10.976Z,29.21
2022-07-30T03:13:41.082Z,29.19
2022-07-30T03:14:11.189Z,29.19
2022-07-30T03:14:41.284Z,29.21
2022-07-30T03:15:11.351Z,29.17
2022-07-30T03:15:41.424Z,29.19
2022-07-30T03:16:11.603Z,29.22
2022-07-30T03:16:41.648Z,29.16
2022-07-30T03:17:11.583Z,29.19
2022-07-30T03:17:41.658Z,29.19
2022-07-30T03:18:11.738Z,29.19
2022-07-30T03:18:41.807Z,29.17
2022-07-30T03:19:11.878Z,29.21
2022-07-30T03:19:41.949Z,29.16
2022-07-30T03:20:12.018Z,29.19
2022-07-30T03:20:42.100Z,29.19
2022-07-30T03:21:12.171Z,29.17
2022-07-30T03:21:42.254Z,29.17
2022-07-30T03:22:12.320Z,29.17
2022-07-30T03:22:42.397Z,29.15
2022-07-30T03:23:12.464Z,29.16
2022-07-30T03:23:42.533Z,29.15
2022-07-30T03:24:12.599Z,29.16
2022-07-30T03:24:43.616Z,29.17
2022-07-30T03:25:12.775Z,29.15
2022-07-30T03:25:42.891Z,29.16
2022-07-30T03:26:13.000Z,29.16
2022-07-30T03:26:43.116Z,29.16
2022-07-30T03:27:13.215Z,29.15
2022-07-30T03:27:43.323Z,29.15
2022-07-30T03:28:13.436Z,29.17
2022-07-30T03:28:43.540Z,29.15
2022-07-30T03:29:13.647Z,29.13
2022-07-30T03:29:43.756Z,29.16
2022-07-30T03:30:13.866Z,29.17
2022-07-30T03:30:43.976Z,29.15
2022-07-30T03:31:14.153Z,29.16
2022-07-30T03:31:44.182Z,29.16
2022-07-30T03:32:15.003Z,29.15
2022-07-30T03:32:44.194Z,29.12
2022-07-30T03:33:14.306Z,29.15
2022-07-30T03:33:44.371Z,29.15
2022-07-30T03:34:14.549Z,29.15
2022-07-30T03:34:44.492Z,29.15
2022-07-30T03:35:17.483Z,29.13
2022-07-30T03:35:44.569Z,29.13
2022-07-30T03:36:14.669Z,29.12
2022-07-30T03:36:44.778Z,29.13
2022-07-30T03:37:14.887Z,29.13
2022-07-30T03:37:45.000Z,29.15
2022-07-30T03:38:15.101Z,29.13
2022-07-30T03:38:45.206Z,29.13
2022-07-30T03:39:15.317Z,29.13
2022-07-30T03:39:45.429Z,29.12
2022-07-30T03:40:15.539Z,29.15
2022-07-30T03:40:45.640Z,29.13
2022-07-30T03:41:15.736Z,29.12
2022-07-30T03:41:45.845Z,29.12
2022-07-30T03:42:15.950Z,29.10
2022-07-30T03:42:45.999Z,29.13
2022-07-30T03:43:32.113Z,29.12
2022-07-30T03:43:45.987Z,29.12
2022-07-30T03:44:16.102Z,29.10
2022-07-30T03:44:46.203Z,29.10
2022-07-30T03:45:16.310Z,29.09
2022-07-30T03:45:46.419Z,29.10
2022-07-30T03:46:16.569Z,29.10
2022-07-30T03:46:46.653Z,29.10
2022-07-30T03:47:16.621Z,29.12
2022-07-30T03:47:46.779Z,29.10
2022-07-30T03:48:16.761Z,29.10
2022-07-30T03:48:46.912Z,29.12
2022-07-30T03:49:16.943Z,29.10
2022-07-30T03:49:46.947Z,29.09
2022-07-30T03:50:17.055Z,29.10
2022-07-30T03:50:47.162Z,29.10
2022-07-30T03:51:17.278Z,29.10
2022-07-30T03:51:47.381Z,29.10
2022-07-30T03:52:17.487Z,29.12
2022-07-30T03:52:47.599Z,29.10
2022-07-30T03:53:17.709Z,29.10
2022-07-30T03:53:47.817Z,29.12
2022-07-30T03:54:17.904Z,29.10
2022-07-30T03:54:48.008Z,29.10
2022-07-30T03:55:18.116Z,29.10
2022-07-30T03:55:48.223Z,29.09
2022-07-30T03:56:18.333Z,29.12
2022-07-30T03:56:48.442Z,29.09
2022-07-30T03:57:20.434Z,29.10
2022-07-30T03:57:48.575Z,29.09
2022-07-30T03:58:18.695Z,29.09
2022-07-30T03:58:48.804Z,29.10
2022-07-30T03:59:18.910Z,29.10
2022-07-30T03:59:49.013Z,29.10
2022-07-30T04:00:19.125Z,29.09
2022-07-30T04:00:49.229Z,29.12
2022-07-30T04:01:19.400Z,29.09
2022-07-30T04:01:49.442Z,29.10
2022-07-30T04:02:19.414Z,29.10
2022-07-30T04:02:49.527Z,29.10
2022-07-30T04:03:19.720Z,29.09
2022-07-30T04:03:49.782Z,29.09
2022-07-30T04:04:19.754Z,29.10
2022-07-30T04:04:49.869Z,29.08
2022-07-30T04:05:19.974Z,29.10
2022-07-30T04:05:50.081Z,29.09
2022-07-30T04:06:20.190Z,29.08
2022-07-30T04:06:50.344Z,29.08
2022-07-30T04:07:20.322Z,29.08
2022-07-30T04:07:50.430Z,29.09
2022-07-30T04:08:20.428Z,29.08
2022-07-30T04:08:50.485Z,29.10
2022-07-30T04:09:20.594Z,29.09
2022-07-30T04:09:50.701Z,29.06
2022-07-30T04:10:20.809Z,29.08
2022-07-30T04:10:50.912Z,29.08
2022-07-30T04:11:21.566Z,29.08
2022-07-30T04:11:51.044Z,29.09
2022-07-30T04:12:21.032Z,29.06
2022-07-30T04:12:51.141Z,29.05
2022-07-30T04:13:21.250Z,29.09
2022-07-30T04:13:51.357Z,29.08
2022-07-30T04:14:21.463Z,29.08
2022-07-30T04:14:51.545Z,29.09
2022-07-30T04:16:37.043Z,29.06
2022-07-30T04:16:37.581Z,29.08
2022-07-30T04:16:39.686Z,29.05
2022-07-30T04:16:51.948Z,29.06
2022-07-30T04:17:22.001Z,29.05
2022-07-30T04:17:51.932Z,29.08
2022-07-30T04:18:22.001Z,29.05
2022-07-30T04:18:52.072Z,29.05
2022-07-30T04:19:22.167Z,29.05
2022-07-30T04:19:52.239Z,29.06
2022-07-30T04:20:22.311Z,29.08
2022-07-30T04:20:52.369Z,29.08
2022-07-30T04:21:22.436Z,29.05
2022-07-30T04:21:52.506Z,29.06
2022-07-30T04:22:22.579Z,29.06
2022-07-30T04:22:52.649Z,29.06
2022-07-30T04:23:22.714Z,29.05
2022-07-30T04:24:03.837Z,29.06
2022-07-30T04:24:22.882Z,29.06
2022-07-30T04:24:52.984Z,29.05
2022-07-30T04:25:24.511Z,29.05
2022-07-30T04:25:53.127Z,29.05
2022-07-30T04:26:23.234Z,29.03
2022-07-30T04:26:53.342Z,29.06
2022-07-30T04:27:23.494Z,29.06
2022-07-30T04:28:03.285Z,29.03
2022-07-30T04:28:23.473Z,29.05
2022-07-30T04:28:53.577Z,29.06
2022-07-30T04:29:24.793Z,29.06
2022-07-30T04:29:53.716Z,29.03
2022-07-30T04:30:23.825Z,29.02
2022-07-30T04:30:53.890Z,29.02
2022-07-30T04:31:24.047Z,29.05
2022-07-30T04:31:53.946Z,29.03
2022-07-30T04:32:24.073Z,29.05
2022-07-30T04:32:54.057Z,29.03
2022-07-30T04:33:24.168Z,29.03
2022-07-30T04:33:54.271Z,29.06
2022-07-30T04:34:24.378Z,29.03
2022-07-30T04:34:54.493Z,29.02
2022-07-30T04:35:50.160Z,29.02
2022-07-30T04:35:54.612Z,29.01
2022-07-30T04:36:24.717Z,29.06
2022-07-30T04:36:54.819Z,29.03
2022-07-30T04:37:24.963Z,29.01
2022-07-30T04:37:54.944Z,29.05
2022-07-30T04:38:25.052Z,29.01
2022-07-30T04:38:55.155Z,29.02
2022-07-30T04:39:25.267Z,29.02
2022-07-30T04:39:55.366Z,29.02
2022-07-30T04:40:25.479Z,29.01
2022-07-30T04:40:55.581Z,29.01
2022-07-30T04:41:25.689Z,29.02
2022-07-30T04:41:55.816Z,29.02
2022-07-30T04:42:25.812Z,29.02
2022-07-30T04:42:55.788Z,29.02
2022-07-30T04:43:25.906Z,29.03
2022-07-30T04:43:56.011Z,29.02
2022-07-30T04:44:26.121Z,29.02
2022-07-30T04:44:56.221Z,29.02
2022-07-30T04:45:26.327Z,29.01
2022-07-30T04:45:56.439Z,29.01
2022-07-30T04:46:26.625Z,29.02
2022-07-30T04:46:56.580Z,29.01
2022-07-30T04:47:26.747Z,29.02
2022-07-30T04:47:56.708Z,29.01
2022-07-30T04:48:26.820Z,28.99
2022-07-30T04:48:56.998Z,29.02
2022-07-30T04:49:27.032Z,29.01
2022-07-30T04:49:57.126Z,29.01
2022-07-30T04:50:27.180Z,29.03
2022-07-30T04:50:57.285Z,29.01
2022-07-30T04:51:27.398Z,29.03
2022-07-30T04:51:57.512Z,29.01
2022-07-30T04:52:27.517Z,29.02
2022-07-30T04:52:57.495Z,29.01
2022-07-30T04:53:27.601Z,29.01
2022-07-30T04:53:57.704Z,29.03
2022-07-30T04:54:27.809Z,29.02
2022-07-30T04:54:57.912Z,29.02
2022-07-30T04:55:28.020Z,29.01
2022-07-30T04:55:58.123Z,29.01
2022-07-30T04:56:28.230Z,29.02
2022-07-30T04:56:58.340Z,29.02
2022-07-30T04:57:28.465Z,29.01
2022-07-30T04:57:58.441Z,28.99
2022-07-30T04:58:28.544Z,29.01
2022-07-30T04:58:58.650Z,28.99
2022-07-30T04:59:28.757Z,29.01
2022-07-30T04:59:58.865Z,29.01
2022-07-30T05:00:32.241Z,28.98
2022-07-30T05:00:58.991Z,29.02
2022-07-30T05:01:34.064Z,28.99
2022-07-30T05:01:59.171Z,28.98
2022-07-30T05:02:29.163Z,28.98
2022-07-30T05:02:59.139Z,28.99
2022-07-30T05:03:29.249Z,29.01
2022-07-30T05:03:59.355Z,28.99
2022-07-30T05:04:29.461Z,28.99
2022-07-30T05:04:59.660Z,28.99
2022-07-30T05:05:29.701Z,28.98
2022-07-30T05:05:59.676Z,29.01
2022-07-30T05:06:29.781Z,29.01
2022-07-30T05:07:00.391Z,28.98
2022-07-30T05:07:29.945Z,28.99
2022-07-30T05:07:59.949Z,28.99
2022-07-30T05:08:29.933Z,28.99
2022-07-30T05:08:59.994Z,29.01
2022-07-30T05:09:30.103Z,28.98
2022-07-30T05:10:00.225Z,29.02
2022-07-30T05:10:30.322Z,28.99
2022-07-30T05:11:00.429Z,28.98
2022-07-30T05:11:30.532Z,28.97
2022-07-30T05:12:00.640Z,28.99
2022-07-30T05:12:30.682Z,28.98
2022-07-30T05:13:00.802Z,28.99
2022-07-30T05:13:34.443Z,28.97
2022-07-30T05:14:00.910Z,28.98
2022-07-30T05:14:31.014Z,28.98
2022-07-30T05:15:01.084Z,28.98
2022-07-30T05:15:36.195Z,28.98
2022-07-30T05:16:01.320Z,28.98
2022-07-30T05:16:31.357Z,28.97
2022-07-30T05:17:01.648Z,28.98
2022-07-30T05:17:31.376Z,28.98
2022-07-30T05:18:01.460Z,28.98
2022-07-30T05:18:31.532Z,28.99
2022-07-30T05:19:01.592Z,28.98
2022-07-30T05:19:31.694Z,28.97
2022-07-30T05:20:01.756Z,28.99
2022-07-30T05:20:31.807Z,28.99
2022-07-30T05:21:01.879Z,28.99
2022-07-30T05:21:31.951Z,28.99
2022-07-30T05:22:06.419Z,28.98
2022-07-30T05:22:32.137Z,28.99
2022-07-30T05:23:02.209Z,28.97
2022-07-30T05:23:32.276Z,28.98
2022-07-30T05:24:02.352Z,28.97
2022-07-30T05:24:32.425Z,28.98
2022-07-30T05:25:02.588Z,28.98
2022-07-30T05:25:32.530Z,28.98
2022-07-30T05:26:02.642Z,28.97
2022-07-30T05:26:32.748Z,28.97
2022-07-30T05:27:03.402Z,28.98
2022-07-30T05:27:32.856Z,28.98
2022-07-30T05:28:02.970Z,28.97
2022-07-30T05:28:33.075Z,28.98
2022-07-30T05:29:03.981Z,28.98
2022-07-30T05:29:33.270Z,28.98
2022-07-30T05:30:03.376Z,28.98
2022-07-30T05:30:33.456Z,28.98
2022-07-30T05:31:03.651Z,28.98
2022-07-30T05:31:33.639Z,28.98
2022-07-30T05:32:03.763Z,28.97
2022-07-30T05:32:33.734Z,28.98
2022-07-30T05:33:13.281Z,28.99
2022-07-30T05:33:40.773Z,28.98
2022-07-30T05:34:04.006Z,28.95
2022-07-30T05:34:33.727Z,28.95
2022-07-30T05:35:03.837Z,28.98
2022-07-30T05:35:33.946Z,28.98
2022-07-30T05:36:04.059Z,28.97
2022-07-30T05:36:34.162Z,28.98
2022-07-30T05:37:04.599Z,28.97
2022-07-30T05:37:34.478Z,28.98
2022-07-30T05:38:04.466Z,28.98
2022-07-30T05:38:34.577Z,28.98
2022-07-30T05:39:04.691Z,28.98
2022-07-30T05:39:34.799Z,28.97
2022-07-30T05:40:04.906Z,28.99
2022-07-30T05:40:35.010Z,28.99
2022-07-30T05:41:05.121Z,28.98
2022-07-30T05:41:35.129Z,28.98
2022-07-30T05:42:05.233Z,28.99
2022-07-30T05:42:35.353Z,28.99
2022-07-30T05:43:05.340Z,28.98
2022-07-30T05:43:35.452Z,29.01
2022-07-30T05:44:05.553Z,28.99
2022-07-30T05:44:35.655Z,28.98
2022-07-30T05:45:05.759Z,28.99
2022-07-30T05:45:35.861Z,28.99
2022-07-30T05:46:06.024Z,28.98
2022-07-30T05:46:36.072Z,28.99
2022-07-30T05:47:06.052Z,29.01
2022-07-30T05:47:36.158Z,28.99
2022-07-30T05:48:06.268Z,28.99
2022-07-30T05:48:36.379Z,28.99
2022-07-30T05:49:06.730Z,28.98
2022-07-30T05:49:36.533Z,29.02
2022-07-30T05:50:06.643Z,29.01
2022-07-30T05:50:36.751Z,29.01
2022-07-30T05:51:06.854Z,29.01
2022-07-30T05:51:36.960Z,29.01
2022-07-30T05:52:07.065Z,29.01
2022-07-30T05:52:37.188Z,29.01
2022-07-30T05:53:07.178Z,29.01
2022-07-30T05:53:37.283Z,29.03
2022-07-30T05:54:07.385Z,29.02
2022-07-30T05:54:37.494Z,29.02
2022-07-30T05:55:07.600Z,29.01
2022-07-30T05:55:37.702Z,29.03
2022-07-30T05:56:07.810Z,29.02
2022-07-30T05:56:37.921Z,29.03
2022-07-30T05:57:08.029Z,29.03
2022-07-30T05:57:38.137Z,29.01
2022-07-30T05:58:08.267Z,29.03
2022-07-30T05:58:38.370Z,29.03
2022-07-30T05:59:08.477Z,29.03
2022-07-30T05:59:38.585Z,29.01
2022-07-30T06:00:10.631Z,29.06
2022-07-30T06:00:38.763Z,29.05
2022-07-30T06:01:08.951Z,29.05
2022-07-30T06:01:39.024Z,29.05
2022-07-30T06:02:08.996Z,29.05
2022-07-30T06:02:39.127Z,29.06
2022-07-30T06:03:09.109Z,29.08
2022-07-30T06:03:39.099Z,29.06
2022-07-30T06:04:09.310Z,29.05
2022-07-30T06:04:39.377Z,29.08
2022-07-30T06:05:09.317Z,29.06
2022-07-30T06:05:39.421Z,29.08
2022-07-30T06:06:09.525Z,29.08
2022-07-30T06:06:39.634Z,29.08
2022-07-30T06:07:09.744Z,29.08
2022-07-30T06:07:39.907Z,29.08
2022-07-30T06:08:09.897Z,29.06
2022-07-30T06:08:40.015Z,29.08
2022-07-30T06:09:10.117Z,29.09
2022-07-30T06:09:40.219Z,29.09
2022-07-30T06:10:10.324Z,29.09
2022-07-30T06:10:40.430Z,29.08
2022-07-30T06:11:10.546Z,29.09
2022-07-30T06:11:40.649Z,29.08
2022-07-30T06:12:10.759Z,29.10
2022-07-30T06:12:40.882Z,29.09
2022-07-30T06:13:10.863Z,29.09
2022-07-30T06:13:40.966Z,29.12
2022-07-30T06:14:11.072Z,29.09
2022-07-30T06:14:41.142Z,29.09
2022-07-30T06:15:11.217Z,29.10
2022-07-30T06:15:41.356Z,29.12
2022-07-30T06:16:11.514Z,29.10
2022-07-30T06:16:41.459Z,29.12
2022-07-30T06:17:11.534Z,29.12
2022-07-30T06:17:42.102Z,29.10
2022-07-30T06:18:11.643Z,29.13
2022-07-30T06:18:41.713Z,29.13
2022-07-30T06:19:19.373Z,29.15
2022-07-30T06:19:41.884Z,29.12
2022-07-30T06:20:11.956Z,29.10
2022-07-30T06:20:42.022Z,29.12
2022-07-30T06:21:12.093Z,29.13
2022-07-30T06:22:05.555Z,29.10
2022-07-30T06:22:12.261Z,29.12
2022-07-30T06:22:42.358Z,29.10
2022-07-30T06:23:12.443Z,29.12
2022-07-30T06:23:42.511Z,29.12
2022-07-30T06:24:12.583Z,29.13
2022-07-30T06:24:42.671Z,29.13
2022-07-30T06:25:12.783Z,29.12
2022-07-30T06:25:42.787Z,29.12
2022-07-30T06:26:12.897Z,29.10
2022-07-30T06:26:43.005Z,29.13
2022-07-30T06:27:13.118Z,29.13
2022-07-30T06:27:43.277Z,29.13
2022-07-30T06:28:35.249Z,29.15
2022-07-30T06:28:43.275Z,29.13
2022-07-30T06:29:13.570Z,29.13
2022-07-30T06:29:43.404Z,29.15